Time;durP1;ratioP1;P1;durP2;ratioP2;P2;SDS_P1;SDS_P2;PMS_P1;PMS_P2;Temp;Humidity;BMP_temperature;BMP_pressure;BME280_temperature;BME280_humidity;BME280_pressure;Samples;Min_cycle;Max_cycle;Signal;HPM_P1;HPM_P2
2021/05/15 00:01:26;;;;;;;9.80;7.60;;;;;;;12.87;71.48;100602.22;4954949;28;20081;-48
2021/05/15 00:03:53;;;;;;;11.73;9.20;;;;;;;12.95;70.67;100604.31;4955040;28;20038;-50
2021/05/15 00:06:20;;;;;;;12.00;9.02;;;;;;;12.97;70.95;100604.03;4955427;28;20034;-48
2021/05/15 00:08:46;;;;;;;;;;;;;;;12.98;70.51;100606.47;4956054;28;20043;-48
2021/05/15 00:11:13;;;;;;;12.32;9.65;;;;;;;13.02;70.66;100603.16;4954904;28;19957;-52
2021/05/15 00:13:39;;;;;;;17.08;9.32;;;;;;;13.04;70.71;100599.03;4955300;28;20047;-50
2021/05/15 00:16:06;;;;;;;12.10;9.23;;;;;;;13.05;70.53;100605.31;4953353;29;20055;-48
2021/05/15 00:18:33;;;;;;;;;;;;;;;13.00;70.10;100600.72;4955690;28;20035;-51
2021/05/15 00:20:59;;;;;;;12.63;9.02;;;;;;;13.00;70.91;100600.72;4954932;28;19914;-51
2021/05/15 00:23:26;;;;;;;12.23;9.45;;;;;;;13.04;70.31;100593.56;4954851;28;20053;-48
2021/05/15 00:25:54;;;;;;;12.38;8.93;;;;;;;13.04;70.31;100596.28;4954758;28;20042;-51
2021/05/15 00:28:20;;;;;;;13.40;10.13;;;;;;;13.06;70.69;100594.09;4954993;28;20487;-52
2021/05/15 00:30:47;;;;;;;;;;;;;;;13.07;70.18;100595.72;4954885;28;20043;-49
2021/05/15 00:33:13;;;;;;;12.98;8.73;;;;;;;13.08;70.38;100591.84;4969622;28;19914;-51
2021/05/15 00:35:40;;;;;;;12.27;9.18;;;;;;;13.09;70.32;100588.03;4954717;28;20115;-51
2021/05/15 00:38:06;;;;;;;10.18;8.23;;;;;;;13.11;69.92;100594.03;4954900;28;20039;-50
2021/05/15 00:40:33;;;;;;;;;;;;;;;13.12;69.41;100595.66;4954402;28;20397;-50
2021/05/15 00:42:59;;;;;;;13.02;9.57;;;;;;;13.12;69.64;100592.09;4954496;28;19922;-51
2021/05/15 00:45:26;;;;;;;;;;;;;;;13.12;69.73;100581.16;4954553;28;20058;-50
2021/05/15 00:47:52;;;;;;;12.13;8.55;;;;;;;13.08;69.53;100582.84;4946369;28;19918;-52
2021/05/15 00:50:19;;;;;;;11.40;9.13;;;;;;;13.06;69.22;100576.84;4954382;28;20480;-52
2021/05/15 00:52:47;;;;;;;;;;;;;;;13.05;69.66;100578.78;4955164;28;20035;-52
2021/05/15 00:55:15;;;;;;;12.90;10.15;;;;;;;13.00;69.60;100573.34;4954895;28;20385;-50
2021/05/15 00:57:42;;;;;;;12.82;9.90;;;;;;;12.96;69.40;100573.13;4954638;28;20035;-53
2021/05/15 01:00:11;;;;;;;13.73;10.23;;;;;;;12.92;69.46;100566.59;4954249;28;20398;-50
2021/05/15 01:02:44;;;;;;;15.35;9.93;;;;;;;12.91;70.13;100569.63;4953565;28;20046;-54
2021/05/15 01:05:13;;;;;;;14.75;10.43;;;;;;;12.89;70.00;100567.19;4952916;28;20512;-52
2021/05/15 01:07:42;;;;;;;16.38;10.70;;;;;;;12.86;69.80;100564.22;4954313;28;20031;-48
2021/05/15 01:10:09;;;;;;;12.85;9.75;;;;;;;12.81;70.36;100575.19;4969055;28;20074;-50
2021/05/15 01:12:52;;;;;;;12.68;10.18;;;;;;;12.77;70.79;100570.31;4953431;28;20062;-50
2021/05/15 01:15:21;;;;;;;14.30;10.60;;;;;;;12.77;70.24;100564.84;4953811;28;20039;-47
2021/05/15 01:17:57;;;;;;;15.88;11.85;;;;;;;12.75;70.32;100558.06;4954285;28;20443;-50
2021/05/15 01:20:26;;;;;;;14.60;11.40;;;;;;;12.72;70.43;100564.06;4954129;28;20114;-49
2021/05/15 01:22:54;;;;;;;15.18;11.60;;;;;;;12.67;71.00;100564.13;4953947;28;20054;-51
2021/05/15 01:25:21;;;;;;;16.52;11.95;;;;;;;12.64;71.06;100565.53;4968987;28;20046;-50
2021/05/15 01:27:47;;;;;;;16.45;11.98;;;;;;;12.62;70.98;100562.25;4953389;28;20027;-50
2021/05/15 01:30:15;;;;;;;16.42;11.77;;;;;;;12.62;70.74;100556.78;4953823;28;20463;-52
2021/05/15 01:32:46;;;;;;;16.63;12.50;;;;;;;12.59;70.78;100557.38;4954016;28;20078;-50
2021/05/15 01:35:15;;;;;;;16.70;11.95;;;;;;;12.55;70.51;100556.31;4954074;28;20039;-52
2021/05/15 01:37:42;;;;;;;15.90;11.70;;;;;;;12.54;70.42;100560.16;4968716;28;20122;-50
2021/05/15 01:40:11;;;;;;;16.25;12.38;;;;;;;12.57;71.16;100559.56;4954089;28;20541;-51
2021/05/15 01:42:38;;;;;;;17.45;12.05;;;;;;;12.60;71.01;100559.00;4953445;28;20040;-51
2021/05/15 01:45:05;;;;;;;;;;;;;;;12.65;70.20;100553.50;4954335;28;20482;-51
2021/05/15 01:47:35;;;;;;;18.27;12.07;;;;;;;12.65;70.03;100550.75;4954085;28;20373;-50
2021/05/15 01:50:03;;;;;;;18.75;12.55;;;;;;;12.64;69.97;100540.09;4953897;28;20042;-51
2021/05/15 01:52:30;;;;;;;18.50;12.25;;;;;;;12.62;70.11;100532.19;4954409;28;20114;-52
2021/05/15 01:54:56;;;;;;;;;;;;;;;12.64;69.67;100531.91;4957932;28;20075;-51
2021/05/15 01:57:23;;;;;;;15.60;11.45;;;;;;;12.62;70.27;100534.91;4957538;28;19922;-51
2021/05/15 01:59:49;;;;;;;;;;;;;;;12.59;69.25;100527.31;4958022;28;20122;-51
2021/05/15 02:02:16;;;;;;;19.35;12.43;;;;;;;12.57;70.12;100521.31;4957573;28;19929;-52
2021/05/15 02:04:43;;;;;;;18.05;12.77;;;;;;;12.56;69.53;100515.03;4957329;28;20402;-51
2021/05/15 02:07:09;;;;;;;;;;;;;;;12.54;69.68;100516.44;4957812;28;20039;-51
2021/05/15 02:09:35;;;;;;;18.13;12.70;;;;;;;12.52;70.08;100510.44;4956413;29;19914;-52
2021/05/15 02:12:02;;;;;;;19.45;12.55;;;;;;;12.50;69.91;100504.44;4957204;28;20035;-51
2021/05/15 02:14:28;;;;;;;;;;;;;;;12.49;69.48;100505.56;4956626;28;20062;-51
2021/05/15 02:16:55;;;;;;;17.80;12.65;;;;;;;12.48;70.23;100503.91;4957277;28;19918;-51
2021/05/15 02:19:22;;;;;;;19.85;12.52;;;;;;;12.47;70.27;100496.81;4957515;28;20490;-51
2021/05/15 02:21:48;;;;;;;;;;;;;;;12.45;69.93;100499.03;4957672;28;20047;-50
2021/05/15 02:24:15;;;;;;;17.48;12.32;;;;;;;12.39;69.44;100492.81;4957150;28;19922;-55
2021/05/15 02:26:41;;;;;;;;;;;;;;;12.39;69.82;100494.69;4957068;28;20383;-50
2021/05/15 02:29:07;;;;;;;20.60;12.90;;;;;;;12.34;70.32;100490.94;4956791;28;19918;-49
2021/05/15 02:31:34;;;;;;;16.90;12.10;;;;;;;12.30;70.63;100495.34;4957200;28;20115;-50
2021/05/15 02:34:00;;;;;;;17.33;12.07;;;;;;;12.28;69.95;100481.16;4957124;28;20375;-51
2021/05/15 02:36:27;;;;;;;19.02;12.27;;;;;;;12.27;70.91;100479.53;4956945;28;20086;-50
2021/05/15 02:38:53;;;;;;;18.05;12.38;;;;;;;12.26;70.25;100480.63;4957021;28;20036;-52
2021/05/15 02:41:20;;;;;;;18.58;12.60;;;;;;;12.24;70.38;100477.38;4956344;28;20083;-51
2021/05/15 02:43:47;;;;;;;22.17;12.00;;;;;;;12.24;70.18;100471.09;4956614;28;20054;-54
2021/05/15 02:46:13;;;;;;;22.33;12.68;;;;;;;12.23;70.76;100473.00;4956450;28;20067;-51
2021/05/15 02:48:40;;;;;;;;;;;;;;;12.23;70.67;100464.81;4957088;28;20039;-50
2021/05/15 02:51:06;;;;;;;18.05;13.13;;;;;;;12.23;70.46;100462.06;4956736;28;19918;-52
2021/05/15 02:53:33;;;;;;;;;;;;;;;12.26;70.66;100464.22;4957118;28;20031;-50
2021/05/15 02:56:00;;;;;;;19.88;13.32;;;;;;;12.26;70.79;100456.03;4956370;28;19914;-50
2021/05/15 02:58:26;;;;;;;18.50;12.32;;;;;;;12.25;70.14;100459.88;4956347;28;20042;-51
2021/05/15 03:00:53;;;;;;;20.20;13.65;;;;;;;12.22;70.62;100459.63;4956449;28;20188;-51
2021/05/15 03:03:20;;;;;;;19.77;12.32;;;;;;;12.21;70.94;100458.81;4956338;28;20062;-51
2021/05/15 03:05:47;;;;;;;18.27;12.82;;;;;;;12.23;70.21;100462.06;4956508;28;20043;-50
2021/05/15 03:08:13;;;;;;;16.55;12.45;;;;;;;12.25;70.64;100465.34;4970983;28;20031;-50
2021/05/15 03:10:40;;;;;;;20.33;14.05;;;;;;;12.27;69.83;100465.88;4956494;28;20047;-51
2021/05/15 03:13:06;;;;;;;;;;;;;;;12.26;69.40;100466.97;4971610;28;20094;-49
2021/05/15 03:15:33;;;;;;;18.95;13.95;;;;;;;12.23;70.04;100466.72;4954853;29;19922;-52
2021/05/15 03:17:59;;;;;;;22.95;14.48;;;;;;;12.20;69.96;100462.66;4959744;28;20042;-54
2021/05/15 03:20:26;;;;;;;;;;;;;;;12.20;69.83;100468.13;4960955;28;20043;-51
2021/05/15 03:22:53;;;;;;;22.17;13.88;;;;;;;12.21;70.54;100477.13;4960220;28;19914;-54
2021/05/15 03:25:21;;;;;;;17.88;13.25;;;;;;;12.21;70.43;100469.75;4959999;28;20486;-52
2021/05/15 03:27:47;;;;;;;20.73;13.02;;;;;;;12.24;70.95;100466.47;4956051;28;20103;-51
2021/05/15 03:30:15;;;;;;;21.33;13.35;;;;;;;12.28;70.19;100466.69;4956257;28;20071;-53
2021/05/15 03:32:42;;;;;;;16.50;13.00;;;;;;;12.29;70.49;100460.94;4958550;28;20051;-63
2021/05/15 03:35:10;;;;;;;19.30;13.80;;;;;;;12.29;70.20;100455.47;4957658;28;20035;-54
2021/05/15 03:37:37;;;;;;;18.83;14.40;;;;;;;12.29;69.95;100455.47;4955288;28;20111;-54
2021/05/15 03:40:05;;;;;;;22.00;14.68;;;;;;;12.27;70.18;100460.41;4956075;28;20091;-53
2021/05/15 03:42:32;;;;;;;20.02;14.35;;;;;;;12.27;70.21;100463.13;4955330;28;20107;-50
2021/05/15 03:44:58;;;;;;;;;;;;;;;12.29;70.06;100460.94;4956093;28;20379;-53
2021/05/15 03:47:25;;;;;;;22.40;14.10;;;;;;;12.31;70.42;100468.81;4970406;28;19918;-53
2021/05/15 03:49:51;;;;;;;;;;;;;;;12.32;70.05;100471.28;4956210;28;20054;-52
2021/05/15 03:52:17;;;;;;;16.70;12.65;;;;;;;12.32;70.07;100467.75;4955475;28;19958;-51
2021/05/15 03:54:44;;;;;;;20.92;14.27;;;;;;;12.29;70.25;100465.56;4955625;28;20119;-51
2021/05/15 03:57:11;;;;;;;18.80;12.93;;;;;;;12.27;70.42;100465.88;4955677;28;20030;-53
2021/05/15 03:59:37;;;;;;;;;;;;;;;12.26;69.64;100466.97;4971075;28;20801;-50
2021/05/15 04:02:04;;;;;;;21.58;13.60;;;;;;;12.23;69.82;100473.00;4955411;28;19918;-54
2021/05/15 04:04:31;;;;;;;;;;;;;;;12.19;70.18;100477.41;4955793;28;20040;-51
2021/05/15 04:06:57;;;;;;;20.73;13.82;;;;;;;12.14;69.43;100474.72;4954845;28;20377;-51
2021/05/15 04:09:24;;;;;;;22.17;15.00;;;;;;;12.12;69.81;100471.47;4955365;28;20032;-51
2021/05/15 04:11:51;;;;;;;19.25;14.75;;;;;;;12.12;70.36;100466.00;4955085;28;20106;-52
2021/05/15 04:19:29;;;;;;;18.67;13.55;;;;;;;12.08;69.97;100463.03;4955243;28;20074;-51
2021/05/15 04:21:56;;;;;;;19.17;12.82;;;;;;;12.08;69.96;100464.97;4954521;28;20486;-51
2021/05/15 04:24:24;;;;;;;;;;;;;;;12.07;70.08;100463.31;4955557;28;20034;-50
2021/05/15 04:26:58;;;;;;;21.63;14.75;;;;;;;12.05;69.95;100468.25;4954832;28;20372;-51
2021/05/15 04:29:25;;;;;;;24.10;15.75;;;;;;;12.04;69.90;100466.63;4942461;29;20027;-51
2021/05/15 04:31:58;;;;;;;19.58;14.00;;;;;;;12.06;70.33;100467.16;4954811;28;20498;-53
2021/05/15 04:34:28;;;;;;;20.08;14.98;;;;;;;12.05;70.80;100463.63;4954864;28;20034;-52
2021/05/15 04:36:56;;;;;;;20.27;14.40;;;;;;;12.06;70.14;100469.88;4954387;28;20454;-50
2021/05/15 04:39:23;;;;;;;22.23;15.30;;;;;;;12.02;70.16;100466.09;4969192;28;20691;-52
2021/05/15 04:41:49;;;;;;;23.73;16.20;;;;;;;12.00;69.94;100465.56;4954730;28;20443;-52
2021/05/15 04:44:16;;;;;;;22.45;15.82;;;;;;;11.97;69.91;100457.94;4954218;28;20126;-50
2021/05/15 04:46:42;;;;;;;21.73;15.27;;;;;;;11.91;69.45;100463.47;4954741;28;20035;-53
2021/05/15 04:49:09;;;;;;;;;;;;;;;11.91;69.29;100454.47;4955141;28;20035;-51
2021/05/15 04:51:35;;;;;;;20.08;14.95;;;;;;;11.90;69.13;100459.09;4968718;28;19937;-51
2021/05/15 04:54:02;;;;;;;;;;;;;;;11.92;68.99;100456.06;4954869;28;20031;-49
2021/05/15 04:56:29;;;;;;;24.38;16.23;;;;;;;11.90;69.32;100453.63;4954304;28;19914;-52
2021/05/15 04:58:56;;;;;;;22.25;15.32;;;;;;;11.92;69.30;100454.16;4969252;28;20384;-51
2021/05/15 05:01:22;;;;;;;;;;;;;;;11.94;68.88;100449.22;4954820;28;20040;-51
2021/05/15 05:03:49;;;;;;;17.77;13.43;;;;;;;11.96;69.03;100448.94;4941208;29;19918;-51
2021/05/15 05:06:16;;;;;;;20.67;14.50;;;;;;;11.98;68.90;100444.03;4953864;28;20058;-52
2021/05/15 05:08:42;;;;;;;;;;;;;;;12.01;69.35;100448.09;4954588;28;20042;-51
2021/05/15 05:11:09;;;;;;;21.70;14.30;;;;;;;12.00;69.07;100446.44;4954439;28;19980;-53
2021/05/15 05:13:35;;;;;;;;;;;;;;;12.01;69.03;100457.09;4954392;28;20039;-50
2021/05/15 05:16:01;;;;;;;23.23;16.27;;;;;;;11.96;68.92;100464.53;4954081;28;19921;-52
2021/05/15 05:18:28;;;;;;;;;;;;;;;11.93;68.65;100458.53;4953983;28;20063;-51
2021/05/15 05:20:56;;;;;;;22.30;16.58;;;;;;;11.92;68.54;100462.34;4953794;28;19921;-50
2021/05/15 05:23:24;;;;;;;24.20;17.15;;;;;;;11.90;68.55;100459.09;4953796;28;20043;-50
2021/05/15 05:25:50;;;;;;;23.38;17.67;;;;;;;11.87;69.29;100465.13;4953817;28;20071;-54
2021/05/15 05:28:22;;;;;;;27.40;20.08;;;;;;;11.84;69.31;100459.41;4954059;28;20063;-53
2021/05/15 05:30:49;;;;;;;25.42;17.60;;;;;;;11.82;69.00;100456.94;4953710;28;20035;-52
2021/05/15 05:33:15;;;;;;;;;;;;;;;11.79;69.11;100456.72;4954215;28;20063;-51
2021/05/15 05:35:42;;;;;;;24.70;16.52;;;;;;;11.79;69.47;100457.53;4953468;28;19915;-52
2021/05/15 05:38:08;;;;;;;;;;;;;;;11.85;68.95;100452.81;4952826;29;20082;-51
2021/05/15 05:40:35;;;;;;;24.48;15.20;;;;;;;11.86;69.28;100451.75;4953684;28;20018;-52
2021/05/15 05:43:01;;;;;;;23.80;17.40;;;;;;;11.85;69.33;100450.91;4953447;28;20402;-52
2021/05/15 05:45:27;;;;;;;;;;;;;;;11.86;69.67;100458.00;4953895;28;20142;-54
2021/05/15 05:47:54;;;;;;;28.65;21.05;;;;;;;11.82;70.01;100456.94;4953336;28;19918;-55
2021/05/15 05:50:20;;;;;;;28.52;21.50;;;;;;;11.76;70.44;100452.66;4953570;28;20039;-51
2021/05/15 05:52:47;;;;;;;;;;;;;;;11.76;69.88;100458.09;4953708;28;20114;-52
2021/05/15 05:55:13;;;;;;;25.95;17.63;;;;;;;11.78;70.73;100458.59;4953617;28;20013;-52
2021/05/15 05:57:40;;;;;;;;;;;;;;;11.86;70.44;100457.19;4954330;28;20034;-53
2021/05/15 06:00:08;;;;;;;25.80;17.45;;;;;;;11.90;69.98;100459.09;4968809;28;19922;-50
2021/05/15 06:02:35;;;;;;;27.75;18.98;;;;;;;11.90;70.13;100459.09;4952976;28;20039;-51
2021/05/15 06:05:02;;;;;;;21.40;14.60;;;;;;;11.92;69.63;100458.81;4953357;28;20138;-53
2021/05/15 06:07:29;;;;;;;19.63;13.73;;;;;;;11.98;70.01;100459.56;4953443;28;20057;-51
2021/05/15 06:09:55;;;;;;;;;;;;;;;11.97;69.47;100456.03;4953858;28;20549;-52
2021/05/15 06:12:23;;;;;;;15.85;12.13;;;;;;;11.99;70.58;100455.75;4953415;28;19918;-52
2021/05/15 06:14:50;;;;;;;23.67;16.42;;;;;;;12.07;70.64;100463.31;4953519;28;20449;-52
2021/05/15 06:17:16;;;;;;;;;;;;;;;12.07;71.05;100463.31;4953082;28;20167;-52
2021/05/15 06:19:44;;;;;;;24.50;18.85;;;;;;;12.07;70.36;100452.38;4953446;28;19914;-51
2021/05/15 06:22:12;;;;;;;29.50;19.20;;;;;;;12.01;70.30;100453.56;4953180;28;20062;-52
2021/05/15 06:24:40;;;;;;;20.60;13.43;;;;;;;12.04;71.08;100447.50;4953480;28;20036;-52
2021/05/15 06:27:08;;;;;;;21.80;14.93;;;;;;;12.08;70.02;100448.56;4953254;28;20074;-50
2021/05/15 06:29:35;;;;;;;24.20;14.85;;;;;;;12.07;69.67;100452.38;4953736;28;20032;-51
2021/05/15 06:32:02;;;;;;;27.40;18.52;;;;;;;12.05;70.42;100449.13;4952953;28;20043;-55
2021/05/15 06:34:29;;;;;;;27.75;19.30;;;;;;;12.04;70.29;100453.78;4953249;28;20060;-51
2021/05/15 06:37:01;;;;;;;26.15;18.83;;;;;;;12.02;69.34;100445.06;4953118;28;20482;-52
2021/05/15 06:39:28;;;;;;;21.27;16.33;;;;;;;12.06;70.27;100453.50;4954793;28;20039;-52
2021/05/15 06:41:54;;;;;;;23.25;16.90;;;;;;;12.07;69.54;100446.94;4956925;28;20035;-52
2021/05/15 06:44:21;;;;;;;26.20;17.55;;;;;;;12.15;70.75;100449.88;4956534;28;20055;-55
2021/05/15 06:46:47;;;;;;;21.45;14.38;;;;;;;12.19;69.74;100454.75;4956692;28;20550;-56
2021/05/15 06:49:14;;;;;;;20.95;14.55;;;;;;;12.21;70.61;100447.88;4956745;28;20054;-52
2021/05/15 06:51:40;;;;;;;;;;;;;;;12.22;69.90;100457.72;4955778;28;20031;-55
2021/05/15 06:54:07;;;;;;;28.00;19.35;;;;;;;12.23;69.79;100455.81;4956754;28;20340;-52
2021/05/15 06:56:33;;;;;;;;;;;;;;;12.28;70.05;100459.28;4956957;28;20035;-55
2021/05/15 06:59:00;;;;;;;33.70;26.38;;;;;;;12.15;69.11;100457.25;4956916;28;19926;-57
2021/05/15 07:01:26;;;;;;;;;;;;;;;12.11;69.30;100456.19;4956641;28;20394;-52
2021/05/15 07:03:53;;;;;;;40.30;27.63;;;;;;;12.08;69.86;100443.13;4956404;28;19914;-54
2021/05/15 07:06:19;;;;;;;36.35;27.55;;;;;;;12.06;69.76;100453.50;4956138;28;20049;-53
2021/05/15 07:08:46;;;;;;;35.90;26.90;;;;;;;12.05;70.00;100446.41;4956336;28;20063;-52
2021/05/15 07:11:12;;;;;;;;;;;;;;;12.04;70.12;100442.06;4956933;28;20040;-54
2021/05/15 07:13:39;;;;;;;37.65;27.92;;;;;;;12.01;69.79;100442.63;4956044;28;19927;-52
2021/05/15 07:16:05;;;;;;;38.13;28.17;;;;;;;12.00;70.23;100441.81;4955541;28;20439;-52
2021/05/15 07:18:32;;;;;;;34.28;26.98;;;;;;;12.06;70.08;100437.13;4955937;28;20040;-53
2021/05/15 07:20:58;;;;;;;;;;;;;;;12.10;69.51;100424.53;4956385;28;20110;-53
2021/05/15 07:23:25;;;;;;;34.90;27.05;;;;;;;12.13;69.05;100429.41;4956181;29;20352;-53
2021/05/15 07:25:52;;;;;;;36.55;26.15;;;;;;;12.10;68.77;100427.25;4955973;28;20035;-53
2021/05/15 07:28:18;;;;;;;;;;;;;;;12.10;68.58;100424.53;4956453;28;20067;-52
2021/05/15 07:30:45;;;;;;;32.92;21.63;;;;;;;12.09;68.00;100417.44;4955000;28;19942;-52
2021/05/15 07:33:12;;;;;;;31.27;24.15;;;;;;;12.13;68.12;100413.81;4955835;28;20031;-51
2021/05/15 07:35:39;;;;;;;30.35;22.48;;;;;;;12.20;68.13;100413.50;4955462;28;20039;-51
2021/05/15 07:38:06;;;;;;;30.75;22.65;;;;;;;12.25;67.33;100421.63;4955665;28;20035;-50
2021/05/15 07:40:33;;;;;;;30.08;20.92;;;;;;;12.29;67.46;100421.84;4955390;28;20505;-52
2021/05/15 07:43:00;;;;;;;28.63;20.60;;;;;;;12.33;68.22;100414.72;4970169;28;20043;-51
2021/05/15 07:45:26;;;;;;;29.13;21.13;;;;;;;12.35;68.19;100416.06;4954734;28;20537;-52
2021/05/15 07:47:53;;;;;;;;;;;;;;;12.43;68.04;100416.53;4955520;28;20031;-52
2021/05/15 07:50:19;;;;;;;31.50;21.60;;;;;;;12.47;67.45;100418.38;4953164;28;20285;-51
2021/05/15 07:52:46;;;;;;;;;;;;;;;12.51;67.82;100413.97;4955871;28;20031;-53
2021/05/15 07:55:12;;;;;;;37.70;21.48;;;;;;;12.57;66.88;100415.53;4955248;28;20373;-52
2021/05/15 07:57:39;;;;;;;;;;;;;;;12.62;66.73;100409.19;4955980;28;20372;-52
2021/05/15 08:00:06;;;;;;;32.67;22.73;;;;;;;12.64;66.41;100407.00;4955205;28;19919;-49
2021/05/15 08:02:40;;;;;;;31.98;21.83;;;;;;;12.62;66.40;100413.84;4955467;28;20047;-51
2021/05/15 08:05:06;;;;;;;;;;;;;;;12.60;66.91;100405.94;4955290;28;20046;-50
2021/05/15 08:07:33;;;;;;;30.75;19.98;;;;;;;12.59;65.99;100409.78;4955463;28;19922;-52
2021/05/15 08:09:59;;;;;;;;;;;;;;;12.57;65.35;100404.59;4955704;28;20482;-51
2021/05/15 08:12:26;;;;;;;27.27;20.67;;;;;;;12.58;65.84;100410.91;4955403;28;20004;-52
2021/05/15 08:14:52;;;;;;;31.55;22.08;;;;;;;12.56;65.32;100407.66;4954952;28;20043;-51
2021/05/15 08:17:19;;;;;;;27.50;20.20;;;;;;;12.53;65.00;100402.75;4955045;28;20039;-51
2021/05/15 08:19:45;;;;;;;27.40;21.58;;;;;;;12.52;65.67;100409.31;4954980;28;20039;-49
2021/05/15 08:22:12;;;;;;;34.63;24.45;;;;;;;12.47;65.06;100414.84;4955175;28;20039;-50
2021/05/15 08:24:38;;;;;;;30.83;23.55;;;;;;;12.43;65.84;100411.06;4954999;28;20043;-52
2021/05/15 08:27:05;;;;;;;34.45;25.80;;;;;;;12.41;65.47;100413.25;4954550;28;20416;-53
2021/05/15 08:29:33;;;;;;;40.30;25.95;;;;;;;12.44;66.03;100408.03;4954616;28;20063;-50
2021/05/15 08:32:01;;;;;;;27.92;19.52;;;;;;;12.47;65.50;100414.84;4954863;28;20035;-56
2021/05/15 08:34:27;;;;;;;33.92;24.75;;;;;;;12.47;65.00;100412.13;4955919;28;20086;-52
2021/05/15 08:36:55;;;;;;;30.52;21.38;;;;;;;12.53;64.86;100406.31;4954974;28;20038;-52
2021/05/15 08:39:22;;;;;;;29.90;24.17;;;;;;;12.50;64.01;100411.53;4954705;28;20478;-53
2021/05/15 08:41:49;;;;;;;33.17;24.80;;;;;;;12.48;64.82;100405.53;4954383;28;20541;-55
2021/05/15 08:44:16;;;;;;;;;;;;;;;12.48;64.59;100409.09;4954312;28;20505;-52
2021/05/15 08:46:44;;;;;;;32.22;22.98;;;;;;;12.48;64.92;100411.00;4954635;28;20064;-52
2021/05/15 08:49:12;;;;;;;32.85;25.05;;;;;;;12.49;64.65;100398.97;4954166;28;20443;-54
2021/05/15 08:51:39;;;;;;;33.17;23.98;;;;;;;12.55;63.72;100397.81;4953002;29;20031;-51
2021/05/15 08:54:06;;;;;;;30.20;22.85;;;;;;;12.64;63.53;100382.38;4953272;29;20039;-51
2021/05/15 08:56:32;;;;;;;;;;;;;;;12.73;63.79;100388.84;4954105;28;20446;-50
2021/05/15 08:58:58;;;;;;;34.30;24.85;;;;;;;12.80;63.00;100388.47;4954333;28;19970;-52
2021/05/15 09:01:25;;;;;;;31.35;22.17;;;;;;;12.86;63.64;100397.41;4952508;28;20498;-54
2021/05/15 09:03:51;;;;;;;30.52;21.73;;;;;;;12.87;62.92;100396.31;4954075;28;20035;-52
2021/05/15 09:06:20;;;;;;;32.88;23.50;;;;;;;12.90;62.17;100393.00;4954360;28;20046;-53
2021/05/15 09:08:49;;;;;;;28.17;21.85;;;;;;;12.93;62.53;100386.94;4954252;28;20043;-52
2021/05/15 09:11:16;;;;;;;34.38;25.67;;;;;;;12.96;62.42;100387.19;4953650;28;20183;-52
2021/05/15 09:13:54;;;;;;;34.88;25.95;;;;;;;12.96;62.77;100381.72;4954099;28;20035;-55
2021/05/15 09:16:23;;;;;;;31.38;22.40;;;;;;;12.99;62.70;100381.09;4953640;28;20063;-48
2021/05/15 09:18:51;;;;;;;30.40;22.05;;;;;;;13.05;61.97;100379.09;4953753;28;20031;-51
2021/05/15 09:21:20;;;;;;;30.60;20.73;;;;;;;13.07;61.82;100360.47;4953865;28;20047;-53
2021/05/15 09:23:50;;;;;;;27.50;19.95;;;;;;;13.14;61.10;100360.91;4953924;28;20059;-51
2021/05/15 09:26:24;;;;;;;25.73;18.55;;;;;;;13.22;61.64;100346.56;4953351;28;20047;-51
2021/05/15 09:28:57;;;;;;;34.15;25.88;;;;;;;13.24;60.61;100342.72;4953707;28;20043;-51
2021/05/15 09:31:32;;;;;;;32.63;25.50;;;;;;;13.26;61.42;100335.03;4953779;28;20054;-55
2021/05/15 09:34:05;;;;;;;35.33;25.65;;;;;;;13.33;61.27;100336.31;4953663;28;20063;-55
2021/05/15 09:36:39;;;;;;;34.08;25.73;;;;;;;13.37;60.53;100328.31;4953653;28;20051;-52
2021/05/15 09:39:11;;;;;;;32.78;25.15;;;;;;;13.39;59.97;100326.09;4953650;28;20055;-53
2021/05/15 09:41:53;;;;;;;32.13;20.60;;;;;;;13.40;60.22;100325.00;4953071;28;20046;-54
2021/05/15 09:44:35;;;;;;;32.35;22.90;;;;;;;13.41;60.22;100318.41;4953280;28;20055;-51
2021/05/15 09:47:04;;;;;;;33.65;24.65;;;;;;;13.34;59.80;100309.75;4953620;28;20041;-52
2021/05/15 09:49:35;;;;;;;32.10;24.95;;;;;;;13.30;60.26;100315.03;4953500;28;20047;-49
2021/05/15 09:52:02;;;;;;;37.50;27.50;;;;;;;13.31;60.93;100308.44;4953587;29;20062;-50
2021/05/15 09:54:32;;;;;;;30.20;21.50;;;;;;;13.35;60.80;100305.94;4952928;28;20051;-52
2021/05/15 09:57:26;;;;;;;34.22;24.55;;;;;;;13.42;60.09;100300.84;4953806;28;20106;-51
2021/05/15 09:59:54;;;;;;;33.15;25.13;;;;;;;13.43;59.46;100299.75;4953275;28;20102;-51
2021/05/15 10:02:22;;;;;;;33.53;24.52;;;;;;;13.47;59.32;100295.31;4955824;28;20077;-53
2021/05/15 10:04:51;;;;;;;32.13;22.08;;;;;;;13.51;59.71;100285.38;4956738;28;20051;-54
2021/05/15 10:07:30;;;;;;;30.50;23.48;;;;;;;13.53;59.06;100285.88;4956594;28;20040;-55
2021/05/15 10:10:03;;;;;;;29.67;19.52;;;;;;;13.58;59.58;100279.50;4954901;28;20043;-52
2021/05/15 10:12:33;;;;;;;29.30;19.13;;;;;;;13.61;58.94;100274.25;4953930;28;20098;-51
2021/05/15 10:15:05;;;;;;;26.70;20.13;;;;;;;13.69;58.77;100277.41;4956465;28;20051;-54
2021/05/15 10:17:37;;;;;;;27.65;20.73;;;;;;;13.71;58.10;100276.00;4957201;28;20070;-53
2021/05/15 10:20:07;;;;;;;28.92;19.67;;;;;;;13.71;58.35;100267.78;4957653;28;20128;-51
2021/05/15 10:22:44;;;;;;;28.08;20.92;;;;;;;13.75;58.30;100265.25;4957256;28;20156;-52
2021/05/15 10:25:14;;;;;;;26.77;20.98;;;;;;;13.76;58.52;100255.94;4971301;28;20067;-52
2021/05/15 10:27:42;;;;;;;27.05;19.88;;;;;;;13.74;57.56;100258.16;4956818;28;20047;-52
2021/05/15 10:30:16;;;;;;;28.65;20.33;;;;;;;13.72;58.01;100247.50;4971762;28;20577;-56
2021/05/15 10:33:13;;;;;;;25.58;19.15;;;;;;;13.71;58.58;100245.88;4956973;28;20043;-54
2021/05/15 10:35:44;;;;;;;25.75;19.60;;;;;;;13.71;58.75;100242.31;4954435;28;20054;-55
2021/05/15 10:38:13;;;;;;;25.27;19.55;;;;;;;13.73;59.14;100240.09;4954366;28;20127;-53
2021/05/15 10:40:47;;;;;;;21.73;14.70;;;;;;;13.72;58.81;100233.00;4954236;28;20274;-52
2021/05/15 10:43:30;;;;;;;22.35;15.95;;;;;;;13.70;58.22;100235.22;4954749;28;20059;-55
2021/05/15 10:45:58;;;;;;;20.80;12.90;;;;;;;13.68;58.73;100241.00;4970151;28;20051;-52
2021/05/15 10:48:27;;;;;;;21.35;14.27;;;;;;;13.61;61.13;100241.41;4970630;28;20071;-55
2021/05/15 10:50:58;;;;;;;19.60;13.43;;;;;;;13.56;63.10;100244.22;4954380;28;20039;-53
2021/05/15 10:53:26;;;;;;;22.08;12.05;;;;;;;13.51;62.86;100238.84;4938094;29;20051;-55
2021/05/15 10:56:29;;;;;;;17.67;12.90;;;;;;;13.43;64.33;100234.88;4954412;28;20043;-51
2021/05/15 10:59:18;;;;;;;14.80;10.73;;;;;;;13.39;63.30;100238.53;4927560;29;20575;-53
2021/05/15 11:01:46;;;;;;;15.70;11.25;;;;;;;13.37;63.88;100238.84;4932278;29;20039;-52
2021/05/15 11:04:18;;;;;;;14.30;10.40;;;;;;;13.41;64.96;100244.50;4935111;29;20060;-51
2021/05/15 11:07:05;;;;;;;16.30;10.93;;;;;;;13.43;63.68;100231.34;4934559;29;20051;-52
2021/05/15 11:09:50;;;;;;;13.10;8.95;;;;;;;13.47;63.92;100231.53;4935334;29;20074;-53
2021/05/15 11:12:18;;;;;;;12.30;8.43;;;;;;;13.48;62.55;100223.03;4936024;29;20082;-54
2021/05/15 11:14:50;;;;;;;11.05;7.05;;;;;;;13.48;61.31;100222.22;4934899;28;20554;-53
2021/05/15 11:17:21;;;;;;;11.68;7.20;;;;;;;13.47;61.38;100220.59;4934678;29;20047;-50
2021/05/15 11:20:00;;;;;;;10.93;6.90;;;;;;;13.40;59.38;100215.53;4934973;29;20051;-53
2021/05/15 11:22:36;;;;;;;10.13;6.65;;;;;;;13.37;60.29;100210.66;4934060;29;20051;-51
2021/05/15 11:25:16;;;;;;;11.93;7.40;;;;;;;13.40;61.33;100210.88;4934430;29;20479;-53
2021/05/15 11:27:58;;;;;;;11.83;7.23;;;;;;;13.43;61.83;100214.94;4414071;29;10002604;-55
2021/05/15 11:30:29;;;;;;;12.65;6.82;;;;;;;13.46;63.92;100213.50;4927142;29;20081;-48
2021/05/15 11:33:03;;;;;;;12.20;7.38;;;;;;;13.42;66.32;100218.75;4909019;29;20598;-50
2021/05/15 11:35:42;;;;;;;10.27;7.07;;;;;;;13.38;67.81;100206.81;4931145;29;20075;-52